Terminal Aerodrome Forecast
Issued by NWS

Home | Current Version | Previous Version | Text Only | Print | Product List | Glossary On
Versions: 1 2 3 4 5 6 7 8 9 10 11 12 13 14 15 16 17 18 19 20 21 22 23 24 25
384
FTUS43 KLSX 151135
TAFSUS
TAF
KSUS 151135Z 1512/1612 00000KT 1/2SM FG VV003
     FM151300 00000KT 1 1/2SM BR FEW025
     FM151400 00000KT P6SM SCT040
     FM160000 VRB03KT P6SM FEW200
     FM161000 00000KT P6SM BKN050=

USA.gov is the U.S. government's official web portal to all federal, state and local government web resources and services.